sensor_id;sensor_type;location;lat;lon;timestamp;temperature;humidity
939;DHT22;456;53.584;9.968;2023-09-19T00:00:01;18.80;59.00
939;DHT22;456;53.584;9.968;2023-09-19T00:02:27;18.80;59.10
939;DHT22;456;53.584;9.968;2023-09-19T00:04:52;18.80;59.00
939;DHT22;456;53.584;9.968;2023-09-19T00:07:19;18.80;59.20
939;DHT22;456;53.584;9.968;2023-09-19T00:09:44;18.80;59.20
939;DHT22;456;53.584;9.968;2023-09-19T00:12:10;18.80;59.00
939;DHT22;456;53.584;9.968;2023-09-19T00:14:35;18.80;59.10
939;DHT22;456;53.584;9.968;2023-09-19T00:17:02;18.80;58.80
939;DHT22;456;53.584;9.968;2023-09-19T00:19:36;18.80;59.40
939;DHT22;456;53.584;9.968;2023-09-19T00:22:03;18.80;59.30
939;DHT22;456;53.584;9.968;2023-09-19T00:24:29;18.80;59.50
939;DHT22;456;53.584;9.968;2023-09-19T00:26:56;18.80;59.50
939;DHT22;456;53.584;9.968;2023-09-19T00:29:25;18.80;59.40
939;DHT22;456;53.584;9.968;2023-09-19T00:31:56;18.80;59.50
939;DHT22;456;53.584;9.968;2023-09-19T00:34:22;18.80;59.60
939;DHT22;456;53.584;9.968;2023-09-19T00:36:48;18.80;59.70
939;DHT22;456;53.584;9.968;2023-09-19T00:39:13;18.80;59.40
939;DHT22;456;53.584;9.968;2023-09-19T00:41:39;18.80;59.40
939;DHT22;456;53.584;9.968;2023-09-19T00:44:06;18.80;59.60
939;DHT22;456;53.584;9.968;2023-09-19T00:46:32;18.80;59.30
939;DHT22;456;53.584;9.968;2023-09-19T00:49:00;18.80;59.40
939;DHT22;456;53.584;9.968;2023-09-19T00:51:26;18.80;59.70
939;DHT22;456;53.584;9.968;2023-09-19T00:53:53;18.80;59.40
939;DHT22;456;53.584;9.968;2023-09-19T00:56:19;18.80;59.20
939;DHT22;456;53.584;9.968;2023-09-19T00:58:46;18.80;59.50
939;DHT22;456;53.584;9.968;2023-09-19T01:01:13;18.80;59.50
939;DHT22;456;53.584;9.968;2023-09-19T01:03:41;18.80;59.50
939;DHT22;456;53.584;9.968;2023-09-19T01:06:07;18.80;59.30
939;DHT22;456;53.584;9.968;2023-09-19T01:08:34;18.80;59.70
939;DHT22;456;53.584;9.968;2023-09-19T01:11:09;18.80;59.50
939;DHT22;456;53.584;9.968;2023-09-19T01:16:19;18.80;59.30
939;DHT22;456;53.584;9.968;2023-09-19T01:21:38;18.80;59.60
939;DHT22;456;53.584;9.968;2023-09-19T01:24:10;18.80;59.70
939;DHT22;456;53.584;9.968;2023-09-19T01:29:39;18.80;59.70
939;DHT22;456;53.584;9.968;2023-09-19T01:32:08;18.80;59.30
939;DHT22;456;53.584;9.968;2023-09-19T01:37:12;18.80;59.40
939;DHT22;456;53.584;9.968;2023-09-19T01:39:39;18.80;59.40
939;DHT22;456;53.584;9.968;2023-09-19T01:45:05;18.80;59.70
939;DHT22;456;53.584;9.968;2023-09-19T01:47:37;18.80;59.70
939;DHT22;456;53.584;9.968;2023-09-19T01:52:50;18.80;59.70
939;DHT22;456;53.584;9.968;2023-09-19T01:55:20;18.80;59.70
939;DHT22;456;53.584;9.968;2023-09-19T01:57:58;18.80;59.20
939;DHT22;456;53.584;9.968;2023-09-19T02:00:27;18.70;59.20
939;DHT22;456;53.584;9.968;2023-09-19T02:02:56;18.80;59.40
939;DHT22;456;53.584;9.968;2023-09-19T02:05:24;18.80;59.70
939;DHT22;456;53.584;9.968;2023-09-19T02:07:50;18.80;59.40
939;DHT22;456;53.584;9.968;2023-09-19T02:10:16;18.80;59.40
939;DHT22;456;53.584;9.968;2023-09-19T02:12:42;18.80;59.70
939;DHT22;456;53.584;9.968;2023-09-19T02:15:08;18.80;59.30
939;DHT22;456;53.584;9.968;2023-09-19T02:17:34;18.80;59.20
939;DHT22;456;53.584;9.968;2023-09-19T02:20:00;18.80;59.40
939;DHT22;456;53.584;9.968;2023-09-19T02:22:26;18.80;59.50
939;DHT22;456;53.584;9.968;2023-09-19T02:24:53;18.80;59.30
939;DHT22;456;53.584;9.968;2023-09-19T02:27:19;18.70;59.60
939;DHT22;456;53.584;9.968;2023-09-19T02:29:45;18.70;59.40
939;DHT22;456;53.584;9.968;2023-09-19T02:32:10;18.80;59.60
939;DHT22;456;53.584;9.968;2023-09-19T02:34:36;18.70;58.90
939;DHT22;456;53.584;9.968;2023-09-19T02:37:05;18.70;59.30
939;DHT22;456;53.584;9.968;2023-09-19T02:39:32;18.70;59.30
939;DHT22;456;53.584;9.968;2023-09-19T02:41:57;18.80;59.10
939;DHT22;456;53.584;9.968;2023-09-19T02:44:23;18.80;59.60
939;DHT22;456;53.584;9.968;2023-09-19T02:46:49;18.70;59.60
939;DHT22;456;53.584;9.968;2023-09-19T02:49:15;18.70;59.00
939;DHT22;456;53.584;9.968;2023-09-19T02:51:43;18.70;59.10
939;DHT22;456;53.584;9.968;2023-09-19T02:54:09;18.70;58.90
939;DHT22;456;53.584;9.968;2023-09-19T02:56:35;18.70;59.10
939;DHT22;456;53.584;9.968;2023-09-19T02:59:01;18.70;59.20
939;DHT22;456;53.584;9.968;2023-09-19T03:01:27;18.70;59.20
939;DHT22;456;53.584;9.968;2023-09-19T03:03:54;18.70;59.20
939;DHT22;456;53.584;9.968;2023-09-19T03:06:20;18.70;59.20
939;DHT22;456;53.584;9.968;2023-09-19T03:08:47;18.80;59.00
939;DHT22;456;53.584;9.968;2023-09-19T03:11:15;18.70;59.30
939;DHT22;456;53.584;9.968;2023-09-19T03:13:41;18.70;59.10
939;DHT22;456;53.584;9.968;2023-09-19T03:16:08;18.70;59.00
939;DHT22;456;53.584;9.968;2023-09-19T03:18:34;18.70;59.00
939;DHT22;456;53.584;9.968;2023-09-19T03:21:00;18.70;58.90
939;DHT22;456;53.584;9.968;2023-09-19T03:23:26;18.70;58.80
939;DHT22;456;53.584;9.968;2023-09-19T03:25:52;18.70;58.70
939;DHT22;456;53.584;9.968;2023-09-19T03:28:21;18.70;58.60
939;DHT22;456;53.584;9.968;2023-09-19T03:31:07;18.70;58.50
939;DHT22;456;53.584;9.968;2023-09-19T03:33:33;18.70;58.40
939;DHT22;456;53.584;9.968;2023-09-19T03:36:00;18.70;58.20
939;DHT22;456;53.584;9.968;2023-09-19T03:38:27;18.70;58.10
939;DHT22;456;53.584;9.968;2023-09-19T03:40:54;18.70;58.00
939;DHT22;456;53.584;9.968;2023-09-19T03:43:20;18.70;58.00
939;DHT22;456;53.584;9.968;2023-09-19T03:45:45;18.70;57.80
939;DHT22;456;53.584;9.968;2023-09-19T03:48:12;18.70;57.70
939;DHT22;456;53.584;9.968;2023-09-19T03:50:38;18.70;57.60
939;DHT22;456;53.584;9.968;2023-09-19T03:53:04;18.70;57.40
939;DHT22;456;53.584;9.968;2023-09-19T03:55:29;18.70;57.30
939;DHT22;456;53.584;9.968;2023-09-19T03:58:01;18.70;57.30
939;DHT22;456;53.584;9.968;2023-09-19T04:00:26;18.70;57.00
939;DHT22;456;53.584;9.968;2023-09-19T04:02:52;18.70;57.00
939;DHT22;456;53.584;9.968;2023-09-19T04:05:18;18.70;56.90
939;DHT22;456;53.584;9.968;2023-09-19T04:07:44;18.70;56.80
939;DHT22;456;53.584;9.968;2023-09-19T04:10:10;18.70;57.80
939;DHT22;456;53.584;9.968;2023-09-19T04:12:37;18.70;57.00
939;DHT22;456;53.584;9.968;2023-09-19T04:15:06;18.70;56.80
939;DHT22;456;53.584;9.968;2023-09-19T04:17:32;18.70;56.90
939;DHT22;456;53.584;9.968;2023-09-19T04:20:01;18.70;56.60
939;DHT22;456;53.584;9.968;2023-09-19T04:22:27;18.70;56.60
939;DHT22;456;53.584;9.968;2023-09-19T04:24:52;18.70;56.50
939;DHT22;456;53.584;9.968;2023-09-19T04:27:18;18.70;56.40
939;DHT22;456;53.584;9.968;2023-09-19T04:29:44;18.70;56.40
939;DHT22;456;53.584;9.968;2023-09-19T04:32:10;18.70;56.40
939;DHT22;456;53.584;9.968;2023-09-19T04:34:36;18.70;56.30
939;DHT22;456;53.584;9.968;2023-09-19T04:37:01;18.60;56.30
939;DHT22;456;53.584;9.968;2023-09-19T04:39:27;18.70;56.30
939;DHT22;456;53.584;9.968;2023-09-19T04:41:53;18.60;55.90
939;DHT22;456;53.584;9.968;2023-09-19T04:44:20;18.60;55.90
939;DHT22;456;53.584;9.968;2023-09-19T04:46:46;18.60;55.90
939;DHT22;456;53.584;9.968;2023-09-19T04:49:12;18.60;55.70
939;DHT22;456;53.584;9.968;2023-09-19T04:51:38;18.60;55.90
939;DHT22;456;53.584;9.968;2023-09-19T04:54:05;18.60;55.70
939;DHT22;456;53.584;9.968;2023-09-19T04:56:30;18.60;55.80
939;DHT22;456;53.584;9.968;2023-09-19T04:58:58;18.60;55.70
939;DHT22;456;53.584;9.968;2023-09-19T05:01:24;18.60;55.50
939;DHT22;456;53.584;9.968;2023-09-19T05:03:50;18.60;55.80
939;DHT22;456;53.584;9.968;2023-09-19T05:06:21;18.60;55.60
939;DHT22;456;53.584;9.968;2023-09-19T05:08:48;18.60;55.60
939;DHT22;456;53.584;9.968;2023-09-19T05:11:19;18.60;55.40
939;DHT22;456;53.584;9.968;2023-09-19T05:13:47;18.60;55.50
939;DHT22;456;53.584;9.968;2023-09-19T05:16:12;18.60;55.50
939;DHT22;456;53.584;9.968;2023-09-19T05:18:38;18.60;55.50
939;DHT22;456;53.584;9.968;2023-09-19T05:21:03;18.60;55.60
939;DHT22;456;53.584;9.968;2023-09-19T05:23:29;18.60;55.20
939;DHT22;456;53.584;9.968;2023-09-19T05:25:56;18.60;55.30
939;DHT22;456;53.584;9.968;2023-09-19T05:28:24;18.60;55.20
939;DHT22;456;53.584;9.968;2023-09-19T05:30:49;18.60;55.20
939;DHT22;456;53.584;9.968;2023-09-19T05:33:15;18.60;55.20
939;DHT22;456;53.584;9.968;2023-09-19T05:35:41;18.60;55.20
939;DHT22;456;53.584;9.968;2023-09-19T05:38:07;18.60;55.20
939;DHT22;456;53.584;9.968;2023-09-19T05:40:35;18.60;55.20
939;DHT22;456;53.584;9.968;2023-09-19T05:43:01;18.60;55.20
939;DHT22;456;53.584;9.968;2023-09-19T05:45:29;18.60;55.20
939;DHT22;456;53.584;9.968;2023-09-19T05:47:54;18.60;55.20
939;DHT22;456;53.584;9.968;2023-09-19T05:50:29;18.60;55.20
939;DHT22;456;53.584;9.968;2023-09-19T05:52:55;18.60;55.20
939;DHT22;456;53.584;9.968;2023-09-19T05:55:23;18.60;55.20
939;DHT22;456;53.584;9.968;2023-09-19T05:57:53;18.60;55.20
939;DHT22;456;53.584;9.968;2023-09-19T06:00:20;18.60;55.10
939;DHT22;456;53.584;9.968;2023-09-19T06:02:55;18.60;55.20
939;DHT22;456;53.584;9.968;2023-09-19T06:05:21;18.60;55.10
939;DHT22;456;53.584;9.968;2023-09-19T06:07:47;18.70;55.20
939;DHT22;456;53.584;9.968;2023-09-19T06:10:13;18.70;55.30
939;DHT22;456;53.584;9.968;2023-09-19T06:12:40;18.60;55.10
939;DHT22;456;53.584;9.968;2023-09-19T06:15:09;18.60;55.10
939;DHT22;456;53.584;9.968;2023-09-19T06:17:38;18.60;55.20
939;DHT22;456;53.584;9.968;2023-09-19T06:20:05;18.70;55.20
939;DHT22;456;53.584;9.968;2023-09-19T06:22:38;18.60;55.10
939;DHT22;456;53.584;9.968;2023-09-19T06:25:04;18.70;55.30
939;DHT22;456;53.584;9.968;2023-09-19T06:27:29;18.70;55.30
939;DHT22;456;53.584;9.968;2023-09-19T06:29:55;18.70;55.30
939;DHT22;456;53.584;9.968;2023-09-19T06:32:27;18.70;55.30
939;DHT22;456;53.584;9.968;2023-09-19T06:34:52;18.60;55.20
939;DHT22;456;53.584;9.968;2023-09-19T06:37:20;18.70;55.30
939;DHT22;456;53.584;9.968;2023-09-19T06:39:46;18.60;55.20
939;DHT22;456;53.584;9.968;2023-09-19T06:42:15;18.60;55.20
939;DHT22;456;53.584;9.968;2023-09-19T06:44:42;18.60;55.20
939;DHT22;456;53.584;9.968;2023-09-19T06:47:08;18.70;55.30
939;DHT22;456;53.584;9.968;2023-09-19T06:49:35;18.60;55.20
939;DHT22;456;53.584;9.968;2023-09-19T06:52:01;18.60;55.20
939;DHT22;456;53.584;9.968;2023-09-19T06:54:28;18.60;55.20
939;DHT22;456;53.584;9.968;2023-09-19T06:56:56;18.60;55.20
939;DHT22;456;53.584;9.968;2023-09-19T06:59:24;18.60;55.20
939;DHT22;456;53.584;9.968;2023-09-19T07:01:49;18.60;55.20
939;DHT22;456;53.584;9.968;2023-09-19T07:04:16;18.60;55.20
939;DHT22;456;53.584;9.968;2023-09-19T07:06:42;18.60;55.20
939;DHT22;456;53.584;9.968;2023-09-19T07:09:08;18.60;55.20
939;DHT22;456;53.584;9.968;2023-09-19T07:11:34;18.60;55.20
939;DHT22;456;53.584;9.968;2023-09-19T07:14:00;18.60;55.20
939;DHT22;456;53.584;9.968;2023-09-19T07:16:28;18.60;55.20
939;DHT22;456;53.584;9.968;2023-09-19T07:18:56;18.60;55.20
939;DHT22;456;53.584;9.968;2023-09-19T07:21:22;18.60;55.20
939;DHT22;456;53.584;9.968;2023-09-19T07:23:48;18.60;55.20
939;DHT22;456;53.584;9.968;2023-09-19T07:26:15;18.60;55.20
939;DHT22;456;53.584;9.968;2023-09-19T07:28:40;18.60;55.20
939;DHT22;456;53.584;9.968;2023-09-19T07:31:06;18.60;55.20
939;DHT22;456;53.584;9.968;2023-09-19T07:33:36;18.70;55.30
939;DHT22;456;53.584;9.968;2023-09-19T07:36:02;18.60;55.20
939;DHT22;456;53.584;9.968;2023-09-19T07:38:27;18.60;55.20
939;DHT22;456;53.584;9.968;2023-09-19T07:40:59;18.60;55.20
939;DHT22;456;53.584;9.968;2023-09-19T07:43:25;18.60;55.20
939;DHT22;456;53.584;9.968;2023-09-19T07:45:50;18.60;55.20
939;DHT22;456;53.584;9.968;2023-09-19T07:48:16;18.60;55.20
939;DHT22;456;53.584;9.968;2023-09-19T07:50:41;18.60;55.10
939;DHT22;456;53.584;9.968;2023-09-19T07:53:09;18.60;55.20
939;DHT22;456;53.584;9.968;2023-09-19T07:55:34;18.60;55.10
939;DHT22;456;53.584;9.968;2023-09-19T07:58:00;18.60;55.00
939;DHT22;456;53.584;9.968;2023-09-19T08:00:26;18.60;55.00
939;DHT22;456;53.584;9.968;2023-09-19T08:02:51;18.60;55.20
939;DHT22;456;53.584;9.968;2023-09-19T08:05:17;18.60;55.00
939;DHT22;456;53.584;9.968;2023-09-19T08:07:46;18.70;55.00
939;DHT22;456;53.584;9.968;2023-09-19T08:10:15;18.80;51.90
939;DHT22;456;53.584;9.968;2023-09-19T08:12:45;18.90;51.10
939;DHT22;456;53.584;9.968;2023-09-19T08:15:18;18.90;51.10
939;DHT22;456;53.584;9.968;2023-09-19T08:17:47;18.90;51.90
939;DHT22;456;53.584;9.968;2023-09-19T08:20:13;18.90;51.20
939;DHT22;456;53.584;9.968;2023-09-19T08:22:44;18.90;51.10
939;DHT22;456;53.584;9.968;2023-09-19T08:25:13;18.90;51.70
939;DHT22;456;53.584;9.968;2023-09-19T08:27:38;18.90;51.20
939;DHT22;456;53.584;9.968;2023-09-19T08:30:04;18.90;51.10
939;DHT22;456;53.584;9.968;2023-09-19T08:32:32;18.90;52.10
939;DHT22;456;53.584;9.968;2023-09-19T08:34:57;19.00;51.10
939;DHT22;456;53.584;9.968;2023-09-19T08:37:23;18.90;51.10
939;DHT22;456;53.584;9.968;2023-09-19T08:39:48;18.90;51.70
939;DHT22;456;53.584;9.968;2023-09-19T08:42:14;19.00;51.10
939;DHT22;456;53.584;9.968;2023-09-19T08:44:42;19.00;51.80
939;DHT22;456;53.584;9.968;2023-09-19T08:47:10;19.00;51.10
939;DHT22;456;53.584;9.968;2023-09-19T08:49:53;19.00;51.10
939;DHT22;456;53.584;9.968;2023-09-19T08:52:22;19.00;51.30
939;DHT22;456;53.584;9.968;2023-09-19T08:54:52;19.00;51.10
939;DHT22;456;53.584;9.968;2023-09-19T08:57:19;19.00;51.50
939;DHT22;456;53.584;9.968;2023-09-19T08:59:48;19.00;51.20
939;DHT22;456;53.584;9.968;2023-09-19T09:02:15;19.00;51.10
939;DHT22;456;53.584;9.968;2023-09-19T09:04:43;19.00;51.30
939;DHT22;456;53.584;9.968;2023-09-19T09:07:13;19.00;51.00
939;DHT22;456;53.584;9.968;2023-09-19T09:09:39;19.00;51.10
939;DHT22;456;53.584;9.968;2023-09-19T09:12:12;19.00;51.10
939;DHT22;456;53.584;9.968;2023-09-19T09:14:45;19.00;50.90
939;DHT22;456;53.584;9.968;2023-09-19T09:17:15;19.00;51.70
939;DHT22;456;53.584;9.968;2023-09-19T09:19:43;19.00;51.10
939;DHT22;456;53.584;9.968;2023-09-19T09:22:09;19.00;51.10
939;DHT22;456;53.584;9.968;2023-09-19T09:24:36;19.00;51.10
939;DHT22;456;53.584;9.968;2023-09-19T09:27:05;19.00;49.90
939;DHT22;456;53.584;9.968;2023-09-19T09:29:45;19.00;51.20
939;DHT22;456;53.584;9.968;2023-09-19T09:32:22;19.00;49.70
939;DHT22;456;53.584;9.968;2023-09-19T09:34:56;19.00;51.10
939;DHT22;456;53.584;9.968;2023-09-19T09:37:23;19.00;51.10
939;DHT22;456;53.584;9.968;2023-09-19T09:40:00;19.00;50.50
939;DHT22;456;53.584;9.968;2023-09-19T09:42:42;19.00;51.10
939;DHT22;456;53.584;9.968;2023-09-19T09:45:22;19.10;50.90
939;DHT22;456;53.584;9.968;2023-09-19T09:47:54;19.00;51.10
939;DHT22;456;53.584;9.968;2023-09-19T09:50:30;19.00;50.80
939;DHT22;456;53.584;9.968;2023-09-19T09:53:29;19.00;50.70
939;DHT22;456;53.584;9.968;2023-09-19T09:56:04;19.00;50.00
939;DHT22;456;53.584;9.968;2023-09-19T09:58:37;19.00;50.30
939;DHT22;456;53.584;9.968;2023-09-19T10:01:04;19.00;51.10
939;DHT22;456;53.584;9.968;2023-09-19T10:03:40;19.10;50.00
939;DHT22;456;53.584;9.968;2023-09-19T10:06:12;19.00;50.80
939;DHT22;456;53.584;9.968;2023-09-19T10:09:06;19.10;50.20
939;DHT22;456;53.584;9.968;2023-09-19T10:11:45;19.10;50.40
939;DHT22;456;53.584;9.968;2023-09-19T10:14:13;19.10;50.30
939;DHT22;456;53.584;9.968;2023-09-19T10:16:48;19.10;49.90
939;DHT22;456;53.584;9.968;2023-09-19T10:19:23;19.00;50.80
939;DHT22;456;53.584;9.968;2023-09-19T10:21:55;19.10;49.90
939;DHT22;456;53.584;9.968;2023-09-19T10:24:22;19.10;49.90
939;DHT22;456;53.584;9.968;2023-09-19T10:26:50;19.10;49.90
939;DHT22;456;53.584;9.968;2023-09-19T10:29:17;19.10;50.80
939;DHT22;456;53.584;9.968;2023-09-19T10:31:47;19.10;50.40
939;DHT22;456;53.584;9.968;2023-09-19T10:34:14;19.10;50.50
939;DHT22;456;53.584;9.968;2023-09-19T10:36:44;19.10;50.10
939;DHT22;456;53.584;9.968;2023-09-19T10:39:14;19.10;49.60
939;DHT22;456;53.584;9.968;2023-09-19T10:41:40;19.10;50.20
939;DHT22;456;53.584;9.968;2023-09-19T10:44:06;19.10;50.40
939;DHT22;456;53.584;9.968;2023-09-19T10:46:32;19.10;49.70
939;DHT22;456;53.584;9.968;2023-09-19T10:49:02;19.10;50.20
939;DHT22;456;53.584;9.968;2023-09-19T10:51:39;19.10;49.90
939;DHT22;456;53.584;9.968;2023-09-19T10:56:36;19.10;50.20
939;DHT22;456;53.584;9.968;2023-09-19T10:59:10;19.10;49.90
939;DHT22;456;53.584;9.968;2023-09-19T11:01:48;19.10;50.80
939;DHT22;456;53.584;9.968;2023-09-19T11:07:11;19.00;50.50
939;DHT22;456;53.584;9.968;2023-09-19T11:09:57;19.10;50.50
939;DHT22;456;53.584;9.968;2023-09-19T11:26:50;19.10;50.60
939;DHT22;456;53.584;9.968;2023-09-19T11:29:32;19.10;49.50
939;DHT22;456;53.584;9.968;2023-09-19T11:31:58;19.10;50.60
939;DHT22;456;53.584;9.968;2023-09-19T11:37:03;19.10;50.70
939;DHT22;456;53.584;9.968;2023-09-19T11:39:30;19.00;49.90
939;DHT22;456;53.584;9.968;2023-09-19T11:41:56;19.10;49.60
939;DHT22;456;53.584;9.968;2023-09-19T11:44:33;19.10;50.40
939;DHT22;456;53.584;9.968;2023-09-19T11:47:04;19.10;49.10
939;DHT22;456;53.584;9.968;2023-09-19T11:49:32;19.10;49.80
939;DHT22;456;53.584;9.968;2023-09-19T11:52:02;19.10;49.70
939;DHT22;456;53.584;9.968;2023-09-19T11:54:31;19.10;49.20
939;DHT22;456;53.584;9.968;2023-09-19T11:56:58;19.10;50.20
939;DHT22;456;53.584;9.968;2023-09-19T11:59:26;19.10;48.50
939;DHT22;456;53.584;9.968;2023-09-19T12:02:01;19.10;49.80
939;DHT22;456;53.584;9.968;2023-09-19T12:04:41;19.10;49.50
939;DHT22;456;53.584;9.968;2023-09-19T12:07:12;19.10;48.90
939;DHT22;456;53.584;9.968;2023-09-19T12:09:42;19.10;50.10
939;DHT22;456;53.584;9.968;2023-09-19T12:12:10;19.10;49.00
939;DHT22;456;53.584;9.968;2023-09-19T12:14:38;19.10;49.90
939;DHT22;456;53.584;9.968;2023-09-19T12:17:06;19.10;49.30
939;DHT22;456;53.584;9.968;2023-09-19T12:19:32;19.10;50.00
939;DHT22;456;53.584;9.968;2023-09-19T12:22:02;19.10;50.10
939;DHT22;456;53.584;9.968;2023-09-19T12:24:31;19.10;49.00
939;DHT22;456;53.584;9.968;2023-09-19T12:27:04;19.10;50.50
939;DHT22;456;53.584;9.968;2023-09-19T12:29:32;19.10;49.20
939;DHT22;456;53.584;9.968;2023-09-19T12:32:00;19.10;49.10
939;DHT22;456;53.584;9.968;2023-09-19T12:34:32;19.10;49.60
939;DHT22;456;53.584;9.968;2023-09-19T12:37:21;19.20;49.10
939;DHT22;456;53.584;9.968;2023-09-19T12:39:50;19.10;49.60
939;DHT22;456;53.584;9.968;2023-09-19T12:42:19;19.10;48.60
939;DHT22;456;53.584;9.968;2023-09-19T12:44:46;19.10;50.00
939;DHT22;456;53.584;9.968;2023-09-19T12:47:15;19.10;49.50
939;DHT22;456;53.584;9.968;2023-09-19T12:52:43;19.10;49.80
939;DHT22;456;53.584;9.968;2023-09-19T12:55:23;19.10;47.70
939;DHT22;456;53.584;9.968;2023-09-19T12:58:12;19.10;50.00
939;DHT22;456;53.584;9.968;2023-09-19T13:00:38;19.10;48.30
939;DHT22;456;53.584;9.968;2023-09-19T13:03:28;19.10;49.60
939;DHT22;456;53.584;9.968;2023-09-19T13:08:28;19.20;48.70
939;DHT22;456;53.584;9.968;2023-09-19T13:11:09;19.10;49.20
939;DHT22;456;53.584;9.968;2023-09-19T13:16:33;19.10;48.90
939;DHT22;456;53.584;9.968;2023-09-19T13:18:59;19.10;48.70
939;DHT22;456;53.584;9.968;2023-09-19T13:21:31;19.10;48.60
939;DHT22;456;53.584;9.968;2023-09-19T13:24:22;19.10;49.30
939;DHT22;456;53.584;9.968;2023-09-19T13:26:53;19.20;49.00
939;DHT22;456;53.584;9.968;2023-09-19T13:29:19;19.10;49.50
939;DHT22;456;53.584;9.968;2023-09-19T13:31:51;19.10;48.20
939;DHT22;456;53.584;9.968;2023-09-19T13:34:19;19.10;49.50
939;DHT22;456;53.584;9.968;2023-09-19T13:36:45;19.10;48.90
939;DHT22;456;53.584;9.968;2023-09-19T13:39:14;19.10;48.50
939;DHT22;456;53.584;9.968;2023-09-19T13:41:40;19.10;48.80
939;DHT22;456;53.584;9.968;2023-09-19T13:44:08;19.20;48.30
939;DHT22;456;53.584;9.968;2023-09-19T13:46:36;19.10;48.80
939;DHT22;456;53.584;9.968;2023-09-19T13:49:02;19.10;48.50
939;DHT22;456;53.584;9.968;2023-09-19T13:51:30;19.20;48.50
939;DHT22;456;53.584;9.968;2023-09-19T13:53:56;19.10;49.20
939;DHT22;456;53.584;9.968;2023-09-19T13:56:21;19.10;47.80
939;DHT22;456;53.584;9.968;2023-09-19T13:58:47;19.10;49.40
939;DHT22;456;53.584;9.968;2023-09-19T14:01:13;19.10;48.80
939;DHT22;456;53.584;9.968;2023-09-19T14:03:39;19.10;48.30
939;DHT22;456;53.584;9.968;2023-09-19T14:06:05;19.10;48.90
939;DHT22;456;53.584;9.968;2023-09-19T14:08:31;19.20;47.40
939;DHT22;456;53.584;9.968;2023-09-19T14:10:59;19.10;49.00
939;DHT22;456;53.584;9.968;2023-09-19T14:13:24;19.10;48.40
939;DHT22;456;53.584;9.968;2023-09-19T14:15:51;19.20;48.20
939;DHT22;456;53.584;9.968;2023-09-19T14:18:16;19.10;48.60
939;DHT22;456;53.584;9.968;2023-09-19T14:20:43;19.10;47.80
939;DHT22;456;53.584;9.968;2023-09-19T14:23:09;19.10;49.00
939;DHT22;456;53.584;9.968;2023-09-19T14:25:35;19.10;48.50
939;DHT22;456;53.584;9.968;2023-09-19T14:28:02;19.20;48.10
939;DHT22;456;53.584;9.968;2023-09-19T14:30:27;19.10;48.60
939;DHT22;456;53.584;9.968;2023-09-19T14:32:53;19.20;47.90
939;DHT22;456;53.584;9.968;2023-09-19T14:35:19;19.20;49.10
939;DHT22;456;53.584;9.968;2023-09-19T14:37:44;19.10;48.20
939;DHT22;456;53.584;9.968;2023-09-19T14:40:11;19.20;48.30
939;DHT22;456;53.584;9.968;2023-09-19T14:42:39;19.10;48.90
939;DHT22;456;53.584;9.968;2023-09-19T14:45:05;19.20;47.80
939;DHT22;456;53.584;9.968;2023-09-19T14:47:32;19.10;48.80
939;DHT22;456;53.584;9.968;2023-09-19T14:50:03;19.20;48.20
939;DHT22;456;53.584;9.968;2023-09-19T14:52:32;19.20;48.40
939;DHT22;456;53.584;9.968;2023-09-19T14:54:58;19.10;48.70
939;DHT22;456;53.584;9.968;2023-09-19T14:57:23;19.20;47.50
939;DHT22;456;53.584;9.968;2023-09-19T14:59:50;19.20;48.70
939;DHT22;456;53.584;9.968;2023-09-19T15:02:16;19.20;47.80
939;DHT22;456;53.584;9.968;2023-09-19T15:04:42;19.20;48.60
939;DHT22;456;53.584;9.968;2023-09-19T15:07:12;19.10;48.50
939;DHT22;456;53.584;9.968;2023-09-19T15:09:38;19.20;47.70
939;DHT22;456;53.584;9.968;2023-09-19T15:12:04;19.10;48.90
939;DHT22;456;53.584;9.968;2023-09-19T15:14:29;19.20;47.60
939;DHT22;456;53.584;9.968;2023-09-19T15:16:55;19.20;48.40
939;DHT22;456;53.584;9.968;2023-09-19T15:19:21;19.10;48.70
939;DHT22;456;53.584;9.968;2023-09-19T15:21:47;19.10;48.10
939;DHT22;456;53.584;9.968;2023-09-19T15:24:13;19.10;48.60
939;DHT22;456;53.584;9.968;2023-09-19T15:26:40;19.10;48.10
939;DHT22;456;53.584;9.968;2023-09-19T15:29:09;19.20;48.30
939;DHT22;456;53.584;9.968;2023-09-19T15:31:38;19.20;48.60
939;DHT22;456;53.584;9.968;2023-09-19T15:34:04;19.20;47.50
939;DHT22;456;53.584;9.968;2023-09-19T15:36:31;19.20;48.30
939;DHT22;456;53.584;9.968;2023-09-19T15:39:04;19.20;47.70
939;DHT22;456;53.584;9.968;2023-09-19T15:41:35;19.20;48.50
939;DHT22;456;53.584;9.968;2023-09-19T15:44:03;19.10;48.10
939;DHT22;456;53.584;9.968;2023-09-19T15:46:30;19.20;48.40
939;DHT22;456;53.584;9.968;2023-09-19T15:48:56;19.20;48.50
939;DHT22;456;53.584;9.968;2023-09-19T15:51:25;19.20;47.20
939;DHT22;456;53.584;9.968;2023-09-19T15:53:53;19.20;48.50
939;DHT22;456;53.584;9.968;2023-09-19T15:56:20;19.10;47.90
939;DHT22;456;53.584;9.968;2023-09-19T15:58:47;19.20;48.10
939;DHT22;456;53.584;9.968;2023-09-19T16:01:14;19.10;48.30
939;DHT22;456;53.584;9.968;2023-09-19T16:03:43;19.20;49.10
939;DHT22;456;53.584;9.968;2023-09-19T16:06:11;19.00;49.30
939;DHT22;456;53.584;9.968;2023-09-19T16:08:44;19.00;49.10
939;DHT22;456;53.584;9.968;2023-09-19T16:11:11;18.90;49.30
939;DHT22;456;53.584;9.968;2023-09-19T16:13:40;18.90;49.10
939;DHT22;456;53.584;9.968;2023-09-19T16:16:11;18.90;49.20
939;DHT22;456;53.584;9.968;2023-09-19T16:18:54;18.90;49.50
939;DHT22;456;53.584;9.968;2023-09-19T16:21:31;18.80;49.30
939;DHT22;456;53.584;9.968;2023-09-19T16:23:59;18.80;49.40
939;DHT22;456;53.584;9.968;2023-09-19T16:26:25;18.80;49.40
939;DHT22;456;53.584;9.968;2023-09-19T16:28:54;18.80;49.40
939;DHT22;456;53.584;9.968;2023-09-19T16:31:22;18.80;49.50
939;DHT22;456;53.584;9.968;2023-09-19T16:33:48;18.80;49.60
939;DHT22;456;53.584;9.968;2023-09-19T16:36:18;18.80;49.70
939;DHT22;456;53.584;9.968;2023-09-19T16:38:46;18.80;49.60
939;DHT22;456;53.584;9.968;2023-09-19T16:41:13;18.80;49.50
939;DHT22;456;53.584;9.968;2023-09-19T16:43:39;18.80;49.70
939;DHT22;456;53.584;9.968;2023-09-19T16:46:06;18.80;49.70
939;DHT22;456;53.584;9.968;2023-09-19T16:48:36;18.80;49.90
939;DHT22;456;53.584;9.968;2023-09-19T16:51:04;18.80;49.80
939;DHT22;456;53.584;9.968;2023-09-19T16:53:31;18.80;49.90
939;DHT22;456;53.584;9.968;2023-09-19T16:56:04;18.70;49.60
939;DHT22;456;53.584;9.968;2023-09-19T16:58:42;18.80;49.70
939;DHT22;456;53.584;9.968;2023-09-19T17:01:14;18.70;49.80
939;DHT22;456;53.584;9.968;2023-09-19T17:03:42;18.70;49.80
939;DHT22;456;53.584;9.968;2023-09-19T17:06:08;18.80;50.00
939;DHT22;456;53.584;9.968;2023-09-19T17:08:36;18.80;49.90
939;DHT22;456;53.584;9.968;2023-09-19T17:11:07;18.70;49.80
939;DHT22;456;53.584;9.968;2023-09-19T17:13:37;18.70;50.00
939;DHT22;456;53.584;9.968;2023-09-19T17:16:07;18.70;49.80
939;DHT22;456;53.584;9.968;2023-09-19T17:18:34;18.70;49.80
939;DHT22;456;53.584;9.968;2023-09-19T17:21:01;18.70;50.00
939;DHT22;456;53.584;9.968;2023-09-19T17:23:28;18.80;50.20
939;DHT22;456;53.584;9.968;2023-09-19T17:26:02;18.70;50.00
939;DHT22;456;53.584;9.968;2023-09-19T17:28:29;18.70;50.20